Time;durP1;ratioP1;P1;durP2;ratioP2;P2;SDS_P1;SDS_P2;PMS_P1;PMS_P2;Temp;Humidity;BMP_temperature;BMP_pressure;BME280_temperature;BME280_humidity;BME280_pressure;Samples;Min_cycle;Max_cycle;Signal;HPM_P1;HPM_P2
2022/08/15 00:01:07;;;;;;;;;;;;;;;25.26;25.25;99919.50;5026199;28;20446;-80
2022/08/15 00:03:38;;;;;;;;;;;;;;;25.21;25.62;99914.69;5027409;28;19933;-80
2022/08/15 00:06:30;;;;;;;;;;;;;;;25.17;25.30;99923.84;5023069;28;19925;-80
2022/08/15 00:09:11;;;;;;;;;;;;;;;25.12;25.29;99927.41;5037115;28;20020;-80
2022/08/15 00:11:40;;;;;;;;;;;;;;;25.08;25.16;99928.16;5027810;28;19929;-80
2022/08/15 00:14:09;;;;;;;;;;;;;;;25.03;25.62;99919.66;5028299;28;19932;-80
2022/08/15 00:16:48;;;;;;;;;;;;;;;25.00;25.37;99920.16;5032280;28;20040;-80
2022/08/15 00:19:20;;;;;;;;;;;;;;;24.98;25.16;99925.19;5036252;28;20027;-80
2022/08/15 00:21:54;;;;;;;;;;;;;;;24.95;25.59;99920.06;5033447;28;19940;-80
2022/08/15 00:24:25;;;;;;;;;;;;;;;24.92;25.51;99929.78;5028187;28;19929;-80
2022/08/15 00:26:57;;;;;;;;;;;;;;;24.90;25.40;99927.22;5029594;28;19972;-80
2022/08/15 00:29:26;;;;;;;;;;;;;;;24.88;25.35;99934.19;5026160;28;20031;-80
2022/08/15 00:32:06;;;;;;;;;;;;;;;24.85;25.68;99932.75;5025578;28;19925;-80
2022/08/15 00:34:54;;;;;;;;;;;;;;;24.83;25.74;99929.34;5039927;28;19933;-80
2022/08/15 00:37:23;;;;;;;;;;;;;;;24.81;25.56;99930.72;5049086;28;19975;-79
2022/08/15 00:39:53;;;;;;;;;;;;;;;24.79;25.43;99927.31;5038398;28;19980;-80
2022/08/15 00:42:24;;;;;;;;;;;;;;;24.78;25.30;99922.81;5029116;28;20331;-80
2022/08/15 00:44:58;;;;;;;;;;;;;;;24.77;25.32;99924.75;5032176;28;19969;-79
2022/08/15 00:47:35;;;;;;;;;;;;;;;24.77;25.49;99935.09;5057755;28;19925;-80
2022/08/15 00:50:07;;;;;;;;;;;;;;;24.76;25.26;99933.38;5029572;28;19933;-80
2022/08/15 00:52:55;;;;;;;;;;;;;;;24.75;25.43;99932.53;5031490;28;19932;-80
2022/08/15 00:55:28;;;;;;;;;;;;;;;24.74;25.37;99936.44;5043674;28;20430;-80
2022/08/15 00:58:00;;;;;;;;;;;;;;;24.74;25.10;99932.78;5031840;28;19933;-80
2022/08/15 01:00:32;;;;;;;;;;;;;;;24.72;25.42;99933.06;5028876;28;19932;-80
2022/08/15 01:03:13;;;;;;;;;;;;;;;24.71;25.27;99931.34;5031759;28;19925;-79
2022/08/15 01:05:45;;;;;;;;;;;;;;;24.71;25.36;99939.75;5030383;28;19925;-80
2022/08/15 01:08:16;;;;;;;;;;;;;;;24.70;25.41;99934.41;5033361;28;19940;-80
2022/08/15 01:10:48;;;;;;;;;;;;;;;24.70;25.20;99940.00;5032117;28;20024;-80
2022/08/15 01:13:30;;;;;;;;;;;;;;;24.69;25.22;99936.34;5043004;28;20028;-80
2022/08/15 01:16:19;;;;;;;;;;;;;;;24.68;25.18;99940.25;5051746;28;19925;-80
2022/08/15 01:19:04;;;;;;;;;;;;;;;24.68;24.86;99940.25;5032179;28;20367;-79
2022/08/15 01:21:52;;;;;;;;;;;;;;;24.68;25.21;99939.38;5029445;28;19975;-79
2022/08/15 01:24:39;;;;;;;;;;;;;;;24.67;25.01;99944.13;5028603;28;19925;-78
2022/08/15 01:27:30;;;;;;;;;;;;;;;24.67;24.88;99944.13;5033441;28;19929;-79
2022/08/15 01:30:08;;;;;;;;;;;;;;;24.66;24.96;99939.63;5031055;28;19979;-79
2022/08/15 01:32:57;;;;;;;;;;;;;;;24.67;24.77;99944.13;5037636;28;19929;-79
2022/08/15 01:35:26;;;;;;;;;;;;;;;24.66;25.07;99947.19;5035800;28;19925;-79
2022/08/15 01:37:56;;;;;;;;;;;;;;;24.66;25.13;99938.78;5043796;28;20307;-78
2022/08/15 01:40:35;;;;;;;;;;;;;;;24.65;24.74;99943.53;5032827;28;19925;-79
2022/08/15 01:43:24;;;;;;;;;;;;;;;24.64;24.85;99944.66;5019054;28;19935;-78
2022/08/15 01:45:58;;;;;;;;;;;;;;;24.65;24.87;99948.31;5033061;28;19925;-79
2022/08/15 01:48:31;;;;;;;;;;;;;;;24.64;24.83;99947.44;5042254;28;19941;-79
2022/08/15 01:51:06;;;;;;;;;;;;;;;24.64;24.79;99941.00;5036257;28;20402;-79
2022/08/15 01:53:43;;;;;;;;;;;;;;;24.63;24.65;99948.53;5033120;28;19932;-78
2022/08/15 01:56:15;;;;;;;;;;;;;;;24.62;24.77;99944.03;5038132;28;20342;-79
2022/08/15 01:59:05;;;;;;;;;;;;;;;24.62;25.13;99948.78;5039051;28;19925;-79
2022/08/15 02:01:39;;;;;;;;;;;;;;;24.60;24.82;99946.22;5030721;28;20024;-78
2022/08/15 02:04:09;;;;;;;;;;;;;;;24.61;24.84;99947.09;5037829;28;19932;-78
2022/08/15 02:06:53;;;;;;;;;;;;;;;24.59;24.58;99949.28;5035141;28;19934;-79
2022/08/15 02:09:27;;;;;;;;;;;;;;;24.57;24.58;99943.09;5030677;28;20066;-79
2022/08/15 02:12:20;;;;;;;;;;;;;;;24.56;24.58;99950.63;5043100;28;20372;-78
2022/08/15 02:15:12;;;;;;;;;;;;;;;24.55;24.82;99948.09;5026515;28;20295;-79
2022/08/15 02:17:41;;;;;;;;;;;;;;;24.53;25.05;99948.31;5032651;28;20338;-79
2022/08/15 02:20:10;;;;;;;;;;;;;;;24.51;24.99;99951.38;5037856;28;20343;-79
2022/08/15 02:22:52;;;;;;;;;;;;;;;24.50;24.85;99951.59;5020800;28;19929;-79
2022/08/15 02:25:21;;;;;;;;;;;;;;;24.48;24.74;99951.84;5046242;28;20291;-78
2022/08/15 02:27:54;;;;;;;;;;;;;;;24.47;25.12;99952.13;5022372;28;20627;-78
2022/08/15 02:30:26;;;;;;;;;;;;;;;24.46;25.09;99953.22;5039079;28;19932;-78
2022/08/15 02:33:02;;;;;;;;;;;;;;;24.43;24.73;99946.16;5021288;28;19926;-78
2022/08/15 02:35:33;;;;;;;;;;;;;;;24.43;24.87;99945.31;5023718;28;19933;-79
2022/08/15 02:38:06;;;;;;;;;;;;;;;24.42;25.04;99943.59;5044215;28;20046;-79
2022/08/15 02:40:46;;;;;;;;;;;;;;;24.41;25.00;99944.69;5024716;28;20008;-79
2022/08/15 02:43:21;;;;;;;;;;;;;;;24.39;25.00;99950.56;5032196;28;19932;-79
2022/08/15 02:45:50;;;;;;;;;;;;;;;24.38;24.95;99942.41;5030496;28;19948;-79
2022/08/15 02:48:46;;;;;;;;;;;;;;;24.36;25.15;99941.81;5019987;28;19932;-79
2022/08/15 02:51:30;;;;;;;;;;;;;;;24.34;25.13;99947.59;5027144;28;20380;-78
2022/08/15 02:54:21;;;;;;;;;;;;;;;24.32;25.03;99941.41;5028820;28;19925;-79
2022/08/15 02:57:08;;;;;;;;;;;;;;;24.31;25.37;99948.13;5032205;28;19978;-78
2022/08/15 02:59:43;;;;;;;;;;;;;;;24.29;25.00;99933.53;5026827;28;20360;-78
2022/08/15 03:02:18;;;;;;;;;;;;;;;24.28;24.99;99930.97;5053848;28;20012;-79
2022/08/15 03:04:59;;;;;;;;;;;;;;;24.25;25.12;99923.94;5030753;28;19932;-78
2022/08/15 03:07:29;;;;;;;;;;;;;;;24.25;25.38;99925.88;5046305;28;19960;-78
2022/08/15 03:09:58;;;;;;;;;;;;;;;24.22;25.51;99921.63;5022144;28;19925;-78
2022/08/15 03:12:46;;;;;;;;;;;;;;;24.21;25.46;99933.91;5020530;28;19929;-79
2022/08/15 03:15:18;;;;;;;;;;;;;;;24.19;25.59;99926.88;5036743;28;19964;-79
2022/08/15 03:17:46;;;;;;;;;;;;;;;24.18;25.30;99931.59;5023160;28;19933;-79
2022/08/15 03:20:18;;;;;;;;;;;;;;;24.17;25.56;99926.25;5030236;28;19967;-79
2022/08/15 03:23:01;;;;;;;;;;;;;;;24.15;25.59;99934.91;5024357;28;19932;-78
2022/08/15 03:25:40;;;;;;;;;;;;;;;24.14;25.53;99930.41;5045954;28;19925;-78
2022/08/15 03:28:18;;;;;;;;;;;;;;;24.11;25.43;99936.47;5035823;28;19925;-79
2022/08/15 03:31:01;;;;;;;;;;;;;;;24.09;25.50;99930.28;5044521;28;19929;-78
2022/08/15 03:33:31;;;;;;;;;;;;;;;24.08;25.36;99942.56;5019857;28;19925;-78
2022/08/15 03:36:21;;;;;;;;;;;;;;;24.06;25.55;99940.03;5041778;28;19929;-78
2022/08/15 03:38:51;;;;;;;;;;;;;;;24.05;25.71;99937.47;5028439;28;19925;-78
2022/08/15 03:41:23;;;;;;;;;;;;;;;24.02;25.57;99944.38;5024343;28;20359;-78
2022/08/15 03:43:51;;;;;;;;;;;;;;;24.01;25.78;99939.03;5030547;28;19932;-79
2022/08/15 03:46:24;;;;;;;;;;;;;;;24.00;25.84;99942.94;5025806;28;21638;-78
2022/08/15 03:48:54;;;;;;;;;;;;;;;23.98;25.91;99936.75;5018554;28;19933;-79
2022/08/15 03:51:29;;;;;;;;;;;;;;;23.96;25.73;99925.81;5060769;28;19929;-78
2022/08/15 03:54:06;;;;;;;;;;;;;;;23.95;25.72;99931.66;5060283;28;19968;-79
2022/08/15 03:56:55;;;;;;;;;;;;;;;23.93;25.79;99931.88;5021738;28;19935;-78
2022/08/15 03:59:23;;;;;;;;;;;;;;;23.92;25.84;99927.38;5043406;28;19932;-79
2022/08/15 04:01:56;;;;;;;;;;;;;;;23.92;25.80;99926.53;5029028;28;20413;-78
2022/08/15 04:04:29;;;;;;;;;;;;;;;23.90;25.64;99924.00;5052810;28;20020;-79
2022/08/15 04:06:58;;;;;;;;;;;;;;;23.90;25.86;99918.41;5021012;28;19926;-79
2022/08/15 04:09:30;;;;;;;;;;;;;;;23.90;25.97;99915.63;5032479;28;20449;-78
2022/08/15 04:11:59;;;;;;;;;;;;;;;23.90;25.74;99921.22;5021376;28;19925;-79
2022/08/15 04:14:35;;;;;;;;;;;;;;;23.90;26.17;99917.56;5021633;28;20012;-79
2022/08/15 04:17:12;;;;;;;;;;;;;;;23.89;26.04;99913.91;5043355;28;19932;-79
2022/08/15 04:19:52;;;;;;;;;;;;;;;23.89;26.16;99918.66;5020055;28;20296;-79
2022/08/15 04:22:35;;;;;;;;;;;;;;;23.89;25.69;99925.09;5024788;28;20364;-79
2022/08/15 04:25:15;;;;;;;;;;;;;;;23.89;25.99;99924.25;5047114;28;19929;-79
2022/08/15 04:27:47;;;;;;;;;;;;;;;23.89;26.17;99922.31;5030722;28;19983;-78
2022/08/15 04:30:22;;;;;;;;;;;;;;;23.89;25.97;99927.03;5031548;28;20012;-79
2022/08/15 04:32:54;;;;;;;;;;;;;;;23.89;26.30;99921.44;5055833;28;19931;-79
2022/08/15 04:35:45;;;;;;;;;;;;;;;23.89;25.89;99929.84;5041405;28;19926;-80
2022/08/15 04:38:15;;;;;;;;;;;;;;;23.90;25.82;99923.16;5027226;28;19959;-79
2022/08/15 04:40:45;;;;;;;;;;;;;;;23.90;26.28;99926.81;5050800;28;19929;-79
2022/08/15 04:43:35;;;;;;;;;;;;;;;23.91;25.91;99922.06;5027765;28;19926;-79
2022/08/15 04:46:06;;;;;;;;;;;;;;;23.91;26.43;99925.69;5046549;28;20011;-78
2022/08/15 04:48:44;;;;;;;;;;;;;;;23.93;25.93;99925.44;5055516;28;20454;-80
2022/08/15 04:51:12;;;;;;;;;;;;;;;23.94;26.27;99930.78;5039881;28;19933;-80
2022/08/15 04:53:44;;;;;;;;;;;;;;;23.95;26.36;99926.91;5038798;28;19983;-79
2022/08/15 04:56:22;;;;;;;;;;;;;;;23.97;26.19;99926.66;5041976;28;20015;-79
2022/08/15 04:59:10;;;;;;;;;;;;;;;23.98;26.46;99932.03;5045505;28;19980;-79
2022/08/15 05:01:59;;;;;;;;;;;;;;;24.00;26.17;99937.34;5041015;28;19925;-80
2022/08/15 05:04:48;;;;;;;;;;;;;;;24.01;26.44;99939.03;5032316;28;20003;-78
2022/08/15 05:07:17;;;;;;;;;;;;;;;24.02;26.18;99940.75;5026642;28;19933;-78
2022/08/15 05:09:47;;;;;;;;;;;;;;;24.02;26.42;99935.16;5045540;28;20305;-78
2022/08/15 05:12:32;;;;;;;;;;;;;;;24.04;26.04;99946.94;5047081;28;19925;-79
2022/08/15 05:15:02;;;;;;;;;;;;;;;24.03;26.22;99946.09;5026370;28;19968;-79
2022/08/15 05:17:32;;;;;;;;;;;;;;;24.04;26.18;99949.75;5034855;28;19925;-79
2022/08/15 05:20:23;;;;;;;;;;;;;;;24.04;26.40;99944.16;5060188;28;19932;-79
2022/08/15 05:22:55;;;;;;;;;;;;;;;24.05;26.34;99949.50;5031705;28;19925;-79
2022/08/15 05:25:28;;;;;;;;;;;;;;;24.04;26.50;99955.34;5044452;28;20447;-79
2022/08/15 05:27:59;;;;;;;;;;;;;;;24.03;26.00;99962.88;5034198;28;19924;-78
2022/08/15 05:30:48;;;;;;;;;;;;;;;24.04;25.96;99963.72;5032735;28;19963;-78
2022/08/15 05:33:27;;;;;;;;;;;;;;;24.03;26.23;99970.41;5036784;28;19933;-78
2022/08/15 05:36:17;;;;;;;;;;;;;;;24.02;26.32;99968.69;5032824;28;19932;-78
2022/08/15 05:38:58;;;;;;;;;;;;;;;24.01;26.00;99964.19;5052455;28;19951;-78
2022/08/15 05:41:40;;;;;;;;;;;;;;;24.00;26.36;99973.66;5031522;28;19925;-79
2022/08/15 05:44:28;;;;;;;;;;;;;;;23.99;26.58;99969.22;5028256;28;19926;-77
2022/08/15 05:47:20;;;;;;;;;;;;;;;23.98;26.36;99973.94;5049185;28;20311;-78
2022/08/15 05:49:53;;;;;;;;;;;;;;;23.98;26.69;99975.88;5032114;28;19960;-78
2022/08/15 05:52:31;;;;;;;;;;;;;;;23.98;26.74;99973.09;5036567;28;19932;-78
2022/08/15 05:55:15;;;;;;;;;;;;;;;23.97;26.54;99975.03;5031962;28;19925;-79
2022/08/15 05:57:49;;;;;;;;;;;;;;;23.97;26.68;99976.97;5032345;28;20028;-78
2022/08/15 06:00:25;;;;;;;;;;;;;;;23.98;26.51;99970.28;5032816;28;19925;-77
2022/08/15 06:02:58;;;;;;;;;;;;;;;23.96;26.43;99964.94;5030863;28;20028;-79
2022/08/15 06:05:32;;;;;;;;;;;;;;;23.98;26.54;99965.56;5035747;28;20650;-80
2022/08/15 06:08:10;;;;;;;;;;;;;;;23.98;26.51;99975.88;5029438;28;19933;-80
2022/08/15 06:11:04;;;;;;;;;;;;;;;23.99;26.57;99975.63;5029094;28;19926;-80
2022/08/15 06:13:36;;;;;;;;;;;;;;;24.00;26.67;99980.13;5025046;28;19959;-79
2022/08/15 06:16:16;;;;;;;;;;;;;;;24.00;26.85;99980.13;5060356;28;20463;-81
2022/08/15 06:19:08;;;;;;;;;;;;;;;24.03;26.78;99987.16;5031643;28;19976;-81
2022/08/15 06:21:41;;;;;;;;;;;;;;;24.03;26.71;99985.22;5037485;28;19943;-80
2022/08/15 06:24:15;;;;;;;;;;;;;;;24.04;26.49;99986.94;5028597;28;19937;-79
2022/08/15 06:27:00;;;;;;;;;;;;;;;24.06;26.73;99992.28;5031701;28;20079;-80
2022/08/15 06:29:37;;;;;;;;;;;;;;;24.07;26.72;99983.63;5021952;28;20466;-81
2022/08/15 06:32:11;;;;;;;;;;;;;;;24.08;27.02;99988.13;5036691;28;19925;-81
2022/08/15 06:34:59;;;;;;;;;;;;;;;24.10;26.68;99987.88;5029884;28;20510;-81
2022/08/15 06:37:31;;;;;;;;;;;;;;;24.12;26.78;99994.09;5028636;28;19948;-80
2022/08/15 06:40:15;;;;;;;;;;;;;;;24.14;27.11;99991.91;5050142;28;20469;-82
2022/08/15 06:43:00;;;;;;;;;;;;;;;24.18;27.08;100001.50;5034823;28;19979;-81
2022/08/15 06:45:49;;;;;;;;;;;;;;;24.20;26.98;99999.31;5030275;28;19932;-81
2022/08/15 06:48:20;;;;;;;;;;;;;;;24.24;27.22;100003.31;5029254;28;20350;-81
2022/08/15 06:51:11;;;;;;;;;;;;;;;24.28;26.93;100001.72;5026029;28;20017;-81
2022/08/15 06:53:46;;;;;;;;;;;;;;;24.33;27.26;100000.97;5028378;28;20377;-79
2022/08/15 06:56:24;;;;;;;;;;;;;;;24.36;26.94;100014.53;5035463;28;19925;-87
2022/08/15 06:59:01;;;;;;;;;;;;;;;24.39;26.96;100003.72;5035248;28;19955;-87
2022/08/15 07:02:02;;;;;;;;;;;;;;;24.44;26.98;100019.72;5048658;28;19939;-86
2022/08/15 07:04:53;;;;;;;;;;;;;;;24.48;27.24;100012.56;5030105;28;20075;-85
2022/08/15 07:07:25;;;;;;;;;;;;;;;24.50;27.02;100016.78;5055742;28;19932;-86
2022/08/15 07:10:00;;;;;;;;;;;;;;;24.54;27.14;100021.91;5022394;28;19925;-81
2022/08/15 07:12:33;;;;;;;;;;;;;;;24.57;27.30;100018.63;5034955;28;19926;-82
2022/08/15 07:15:11;;;;;;;;;;;;;;;24.59;27.37;100017.25;5043404;28;20481;-83
2022/08/15 07:17:46;;;;;;;;;;;;;;;24.62;27.18;100015.94;5030122;28;19926;-82
2022/08/15 07:20:27;;;;;;;;;;;;;;;24.64;27.12;100009.00;5035320;28;19925;-78
2022/08/15 07:23:20;;;;;;;;;;;;;;;24.68;26.84;100015.78;5031589;28;19925;-77
2022/08/15 07:25:49;;;;;;;;;;;;;;;24.70;27.18;100010.81;5039500;28;19937;-78
2022/08/15 07:28:21;;;;;;;;;;;;;;;24.73;26.92;100006.66;5027873;28;19929;-78
2022/08/15 07:31:01;;;;;;;;;;;;;;;24.76;27.13;100012.59;5043049;28;19925;-77
2022/08/15 07:33:33;;;;;;;;;;;;;;;24.78;27.39;100009.56;5048790;28;19932;-77
2022/08/15 07:36:18;;;;;;;;;;;;;;;24.81;27.15;100011.88;5054972;28;20016;-78
2022/08/15 07:39:20;;;;;;;;;;;;;;;24.82;27.31;100014.38;5028965;28;19933;-77
2022/08/15 07:42:19;;;;;;;;;;;;;;;24.85;27.30;100018.66;5047720;28;19932;-77
2022/08/15 07:45:26;;;;;;;;;;;;;;;24.87;27.14;100013.66;5053316;28;19925;-75
2022/08/15 07:47:59;;;;;;;;;;;;;;;24.87;27.47;100011.72;5029843;28;19929;-77
2022/08/15 07:50:34;;;;;;;;;;;;;;;24.89;27.47;100006.72;5030936;28;19928;-76
2022/08/15 07:53:06;;;;;;;;;;;;;;;24.91;27.27;100012.06;5030201;28;20419;-77
2022/08/15 07:56:05;;;;;;;;;;;;;;;24.92;27.56;100013.75;5046133;28;19925;-77
2022/08/15 07:58:55;;;;;;;;;;;;;;;24.95;27.26;100016.09;5047754;28;19937;-78
2022/08/15 08:01:28;;;;;;;;;;;;;;;24.95;27.34;100024.50;5045950;28;19925;-76
2022/08/15 08:04:09;;;;;;;;;;;;;;;24.97;27.48;100022.31;5048376;28;19926;-77
2022/08/15 08:06:55;;;;;;;;;;;;;;;24.99;27.32;100014.47;5029890;28;19929;-77
2022/08/15 08:09:30;;;;;;;;;;;;;;;25.00;27.21;100018.13;5049504;28;19975;-77
2022/08/15 08:12:05;;;;;;;;;;;;;;;25.02;27.43;100018.75;5047883;28;20439;-76
2022/08/15 08:14:36;;;;;;;;;;;;;;;25.02;27.82;100008.41;5025819;28;20356;-77
2022/08/15 08:17:18;;;;;;;;;;;;;;;25.05;27.47;100012.66;5023673;28;20018;-77
2022/08/15 08:19:55;;;;;;;;;;;;;;;25.05;27.51;100019.09;5028787;28;19925;-80
2022/08/15 08:22:28;;;;;;;;;;;;;;;25.05;27.68;100021.91;5024571;28;20338;-79
2022/08/15 08:25:01;;;;;;;;;;;;;;;25.06;27.41;100022.75;5029538;28;20428;-80
2022/08/15 08:27:51;;;;;;;;;;;;;;;25.06;27.47;100020.78;5058572;28;19948;-79
2022/08/15 08:30:23;;;;;;;;;;;;;;;25.07;27.67;100024.44;5033765;28;19969;-79
2022/08/15 08:33:18;;;;;;;;;;;;;;;25.07;27.67;100036.47;5018809;28;19956;-78
2022/08/15 08:35:52;;;;;;;;;;;;;;;25.08;27.43;100043.78;5024835;28;19936;-78
2022/08/15 08:38:33;;;;;;;;;;;;;;;25.08;27.71;100038.19;5033048;28;19958;-78
2022/08/15 08:41:28;;;;;;;;;;;;;;;25.10;27.44;100033.19;5028591;28;19936;-77
2022/08/15 08:44:04;;;;;;;;;;;;;;;25.10;27.63;100036.00;5032524;28;19925;-77
2022/08/15 08:47:00;;;;;;;;;;;;;;;25.12;27.65;100041.34;5018528;28;20292;-79
2022/08/15 08:49:36;;;;;;;;;;;;;;;25.13;27.87;100040.25;5033706;28;20006;-79
2022/08/15 08:52:28;;;;;;;;;;;;;;;25.14;27.77;100039.16;5038196;28;20290;-80
2022/08/15 08:55:00;;;;;;;;;;;;;;;25.16;27.81;100040.59;5035617;28;20345;-80
2022/08/15 08:57:34;;;;;;;;;;;;;;;25.18;27.80;100037.53;5030982;28;19925;-80
2022/08/15 09:00:05;;;;;;;;;;;;;;;25.20;27.82;100035.34;5029288;28;19932;-80
2022/08/15 09:02:36;;;;;;;;;;;;;;;25.22;27.79;100039.59;5045837;28;19926;-80
2022/08/15 09:05:27;;;;;;;;;;;;;;;25.26;27.91;100046.38;5025467;28;20025;-79
2022/08/15 09:08:16;;;;;;;;;;;;;;;25.29;27.89;100050.66;5030004;28;19995;-80
2022/08/15 09:10:57;;;;;;;;;;;;;;;25.31;27.89;100051.22;5029623;28;20087;-79
2022/08/15 09:13:36;;;;;;;;;;;;;;;25.34;27.87;100050.72;5030840;28;20419;-80
2022/08/15 09:16:11;;;;;;;;;;;;;;;25.36;27.74;100048.53;5034064;28;19987;-80
2022/08/15 09:18:43;;;;;;;;;;;;;;;25.39;27.92;100042.41;5029676;28;20098;-81
2022/08/15 09:21:17;;;;;;;;;;;;;;;25.41;27.92;100045.81;5030387;28;19925;-80
2022/08/15 09:23:46;;;;;;;;;;;;;;;25.43;27.90;100046.44;5051438;28;19933;-80
2022/08/15 09:26:17;;;;;;;;;;;;;;;25.45;28.04;100044.22;5033426;28;19925;-80
2022/08/15 09:29:02;;;;;;;;;;;;;;;25.47;27.96;100042.00;5024669;28;19990;-79
2022/08/15 09:31:54;;;;;;;;;;;;;;;25.49;28.01;100044.56;5050359;28;19933;-78
2022/08/15 09:34:33;;;;;;;;;;;;;;;25.49;27.88;100041.75;5036925;28;19933;-80
2022/08/15 09:37:19;;;;;;;;;;;;;;;25.49;27.95;100051.00;5039538;28;19925;-80
2022/08/15 09:40:05;;;;;;;;;;;;;;;25.50;28.05;100063.91;5044684;28;20295;-80
2022/08/15 09:43:00;;;;;;;;;;;;;;;25.50;28.10;100058.31;5048424;28;19964;-79
2022/08/15 09:45:55;;;;;;;;;;;;;;;25.51;27.94;100053.59;5030163;28;20027;-79
2022/08/15 09:48:41;;;;;;;;;;;;;;;25.53;28.18;100060.66;5030428;28;19971;-79
2022/08/15 09:51:16;;;;;;;;;;;;;;;25.52;28.13;100058.09;5029168;28;19925;-79
2022/08/15 09:53:55;;;;;;;;;;;;;;;25.53;27.98;100062.59;5025246;28;19929;-79
2022/08/15 09:56:31;;;;;;;;;;;;;;;25.53;28.50;100057.84;5031776;28;19925;-79
2022/08/15 09:59:08;;;;;;;;;;;;;;;25.55;28.05;100063.22;5030501;28;19929;-78
2022/08/15 10:01:45;;;;;;;;;;;;;;;25.55;28.21;100061.25;5030771;28;19926;-78
2022/08/15 10:04:23;;;;;;;;;;;;;;;25.57;27.97;100053.44;5020957;28;19947;-78
2022/08/15 10:07:30;;;;;;;;;;;;;;;25.58;28.21;100066.34;5035329;28;19989;-79
2022/08/15 10:10:12;;;;;;;;;;;;;;;25.60;28.35;100058.53;5030646;28;20300;-79
2022/08/15 10:13:10;;;;;;;;;;;;;;;25.61;28.25;100060.25;5026869;28;19964;-79
2022/08/15 10:15:41;;;;;;;;;;;;;;;25.63;28.30;100057.19;5043379;28;19924;-80
2022/08/15 10:18:09;;;;;;;;;;;;;;;25.64;28.21;100047.66;5056062;28;19929;-81
2022/08/15 10:21:01;;;;;;;;;;;;;;;25.66;28.38;100048.25;5032147;28;20005;-80
2022/08/15 10:23:41;;;;;;;;;;;;;;;25.67;28.45;100049.97;5029421;28;19925;-79
2022/08/15 10:26:21;;;;;;;;;;;;;;;25.69;28.47;100055.31;5037898;28;19929;-80
2022/08/15 10:29:12;;;;;;;;;;;;;;;25.69;28.17;100049.72;5028993;28;19932;-78
2022/08/15 10:31:52;;;;;;;;;;;;;;;25.70;28.50;100057.03;5029532;28;20124;-79
2022/08/15 10:34:35;;;;;;;;;;;;;;;25.71;28.40;100061.53;5029328;28;19925;-79
2022/08/15 10:37:06;;;;;;;;;;;;;;;25.71;28.52;100055.94;5030916;28;19933;-79
2022/08/15 10:39:37;;;;;;;;;;;;;;;25.71;28.61;100064.34;5040528;28;19987;-79
2022/08/15 10:42:17;;;;;;;;;;;;;;;25.71;28.50;100070.78;5030854;28;19928;-82
2022/08/15 10:44:56;;;;;;;;;;;;;;;25.72;28.43;100074.44;5019359;28;19975;-77
2022/08/15 10:47:37;;;;;;;;;;;;;;;25.72;28.57;100075.25;5025363;28;19929;-77
2022/08/15 10:50:16;;;;;;;;;;;;;;;25.72;28.46;100071.66;5030406;28;19929;-77
2022/08/15 10:53:00;;;;;;;;;;;;;;;25.71;28.63;100070.78;5032495;28;19929;-76
2022/08/15 10:55:29;;;;;;;;;;;;;;;25.72;28.61;100071.66;5034220;28;19925;-75
2022/08/15 10:58:22;;;;;;;;;;;;;;;25.73;28.53;100084.53;5032451;28;19925;-77
2022/08/15 11:01:04;;;;;;;;;;;;;;;25.71;28.39;100079.19;5023395;28;19924;-76
2022/08/15 11:03:41;;;;;;;;;;;;;;;25.71;28.49;100090.41;5024990;28;19929;-76
2022/08/15 11:06:30;;;;;;;;;;;;;;;25.70;28.68;100085.91;5026963;28;19925;-76
2022/08/15 11:09:06;;;;;;;;;;;;;;;25.69;28.73;100084.19;5035151;28;19933;-76
2022/08/15 11:11:38;;;;;;;;;;;;;;;25.68;28.83;100081.66;5029998;28;19926;-77
2022/08/15 11:14:10;;;;;;;;;;;;;;;25.68;28.71;100093.69;5026930;28;19933;-75
2022/08/15 11:16:51;;;;;;;;;;;;;;;25.69;28.56;100102.97;5026124;28;20442;-77
2022/08/15 11:19:28;;;;;;;;;;;;;;;25.68;28.71;100099.31;5028332;28;19947;-78
2022/08/15 11:22:28;;;;;;;;;;;;;;;25.68;28.67;100098.47;5027434;28;19935;-77
2022/08/15 11:24:57;;;;;;;;;;;;;;;25.67;28.85;100100.41;5024666;28;19933;-76
2022/08/15 11:27:28;;;;;;;;;;;;;;;25.67;29.05;100111.63;5029713;28;19925;-76
2022/08/15 11:30:07;;;;;;;;;;;;;;;25.66;28.99;100107.13;5024300;28;20338;-76
2022/08/15 11:32:50;;;;;;;;;;;;;;;25.64;28.83;100109.31;5028066;28;19931;-77
2022/08/15 11:35:24;;;;;;;;;;;;;;;25.63;28.74;100102.03;5027627;28;19971;-77
2022/08/15 11:37:55;;;;;;;;;;;;;;;25.60;28.74;100103.38;5026374;28;20395;-76
2022/08/15 11:40:27;;;;;;;;;;;;;;;25.58;28.70;100099.13;5027154;28;19926;-76
2022/08/15 11:42:57;;;;;;;;;;;;;;;25.57;29.02;100111.41;5029688;28;19925;-76
2022/08/15 11:45:41;;;;;;;;;;;;;;;25.56;29.16;100112.53;5018437;28;20006;-76
2022/08/15 11:48:20;;;;;;;;;;;;;;;25.54;29.16;100111.94;5023981;28;19925;-77
2022/08/15 11:50:56;;;;;;;;;;;;;;;25.52;29.10;100109.38;5030048;28;20008;-77
2022/08/15 11:53:28;;;;;;;;;;;;;;;25.49;29.14;100109.84;5027998;28;19928;-78
2022/08/15 11:55:57;;;;;;;;;;;;;;;25.48;29.16;100115.69;5029518;28;19925;-77
2022/08/15 11:58:31;;;;;;;;;;;;;;;25.46;29.24;100113.16;5028047;28;19979;-77
2022/08/15 12:01:01;;;;;;;;;;;;;;;25.45;29.15;100105.00;5029673;28;19933;-77
2022/08/15 12:03:31;;;;;;;;;;;;;;;25.43;29.13;100110.84;5028711;28;19925;-77
2022/08/15 12:06:21;;;;;;;;;;;;;;;25.41;29.29;100104.66;5029959;28;19964;-77
2022/08/15 12:09:11;;;;;;;;;;;;;;;25.41;29.36;100112.19;5023264;28;19925;-77
2022/08/15 12:11:59;;;;;;;;;;;;;;;25.38;29.22;100116.38;5051154;28;19965;-77
2022/08/15 12:14:29;;;;;;;;;;;;;;;25.37;29.44;100114.66;5028433;28;19960;-77
2022/08/15 12:17:01;;;;;;;;;;;;;;;25.36;29.29;100112.97;5034683;28;20325;-77
2022/08/15 12:19:39;;;;;;;;;;;;;;;25.35;29.42;100108.47;5027115;28;20434;-78
2022/08/15 12:22:30;;;;;;;;;;;;;;;25.34;29.46;100105.91;5023526;28;20057;-77
2022/08/15 12:25:19;;;;;;;;;;;;;;;25.33;29.44;100110.66;5021631;28;19999;-77
2022/08/15 12:28:07;;;;;;;;;;;;;;;25.31;29.40;100107.25;5030337;28;19925;-77
2022/08/15 12:31:23;;;;;;;;;;;;;;;25.30;29.27;100108.38;5013336;28;19936;-77
2022/08/15 12:34:03;;;;;;;;;;;;;;;25.29;29.66;100109.47;5030443;28;19925;-77
2022/08/15 12:36:51;;;;;;;;;;;;;;;25.28;29.68;100107.75;5040900;28;19929;-78
2022/08/15 12:39:33;;;;;;;;;;;;;;;25.29;29.63;100112.25;5028231;28;20336;-78
2022/08/15 12:42:01;;;;;;;;;;;;;;;25.28;29.30;100107.75;5042581;28;19926;-78
2022/08/15 12:44:51;;;;;;;;;;;;;;;25.29;29.34;100115.06;5028875;28;19925;-77
2022/08/15 12:47:22;;;;;;;;;;;;;;;25.30;29.33;100110.31;5026524;28;19932;-77
2022/08/15 12:50:01;;;;;;;;;;;;;;;25.31;29.50;100110.03;5033580;28;19999;-77
2022/08/15 12:52:29;;;;;;;;;;;;;;;25.31;29.45;100112.84;5036936;28;20343;-77
2022/08/15 12:54:57;;;;;;;;;;;;;;;25.34;29.42;100114.31;5032127;28;19929;-77
2022/08/15 12:57:28;;;;;;;;;;;;;;;25.34;29.44;100106.75;5032510;28;20025;-76
2022/08/15 13:00:17;;;;;;;;;;;;;;;25.37;29.21;100116.63;5030873;28;19925;-77
2022/08/15 13:03:06;;;;;;;;;;;;;;;25.39;29.61;100106.84;5024718;28;19933;-77
2022/08/15 13:05:46;;;;;;;;;;;;;;;25.40;29.37;100110.50;5030025;28;19929;-77
2022/08/15 13:08:34;;;;;;;;;;;;;;;25.41;29.58;100104.66;5031546;28;19951;-77
2022/08/15 13:11:08;;;;;;;;;;;;;;;25.42;29.49;100100.75;5030704;28;20007;-77
2022/08/15 13:13:56;;;;;;;;;;;;;;;25.44;29.37;100106.97;5031673;28;19926;-77
2022/08/15 13:16:24;;;;;;;;;;;;;;;25.45;29.23;100107.81;5029411;28;19979;-77
2022/08/15 13:19:15;;;;;;;;;;;;;;;25.46;29.24;100101.09;5026333;28;20012;-77
2022/08/15 13:24:58;;;;;;;;;;;;;;;25.47;29.39;100106.44;5029461;28;19960;-76
2022/08/15 13:27:29;;;;;;;;;;;;;;;25.48;29.33;100110.94;5032661;28;20011;-77
2022/08/15 13:29:57;;;;;;;;;;;;;;;25.49;29.34;100106.19;5031594;28;19925;-76
2022/08/15 13:32:30;;;;;;;;;;;;;;;25.50;29.50;100105.94;5034837;28;19972;-76
2022/08/15 13:34:59;;;;;;;;;;;;;;;25.53;29.42;100115.84;5033212;28;19929;-78
2022/08/15 13:37:37;;;;;;;;;;;;;;;25.52;29.00;100109.38;5033304;28;19925;-78
2022/08/15 13:40:25;;;;;;;;;;;;;;;25.53;29.25;100108.28;5030144;28;19937;-77
2022/08/15 13:42:59;;;;;;;;;;;;;;;25.55;29.21;100116.44;5043198;28;19935;-77